»·PEaware :: UPS3032 KSFO-KONT

UPS3032 :: KSFO-KONT

FLIGHT INFORMATION

Flight Status: Arrived
Operator:
United Parcel Service
More flights by this operator :: More flights under this callsign
Pilot: Kyle M. (9350)
Aircraft: AIRBUS A300B4-600
(A306)
More flights by this aircraft type
Origin: KSFO San Francisco Intl
United States
Destination: KONT Ontario Intl
United States
More flights between these airports :: More routes between these airports
Route: WESLA4 LOSHN EHF ZIGGY7
File this flight plan on PilotEdge
Remarks: RMK / SIMBRIEF
Altitude:
(Current/Filed)
35,000ft
Speed:
(Current/Filed)
455kts
Departed: 13-Aug-20 11:39 AM
Arrived: 13-Aug-20 12:36 PM
Distance/Time
Traveled:
317nm/0:57
Distance/Time
To Go:
Arrived

Flight Plot

Page will automatically refresh every two minutes.

Flight plan parsing failed; only flown route is shown


Map Options




Map Legend


Flown Route
Filed Route
Departure Airport
Arrival Airport
Navaid (VOR, NDB)
Fix

Horizontal Profiles

Position Reports

Time Latitude Longitude Heading Altitude Ground
Speed
13-Aug-20 10:53 37.636634 -122.387983 60 21ft 0kts
13-Aug-20 10:54 37.636634 -122.387983 60 21ft 0kts
13-Aug-20 10:55 37.636634 -122.387983 60 21ft 0kts
13-Aug-20 10:56 37.636634 -122.387983 60 21ft 0kts
13-Aug-20 10:57 37.636634 -122.387983 60 21ft 0kts
13-Aug-20 10:58 37.636634 -122.387983 60 21ft 0kts
13-Aug-20 10:59 37.636634 -122.387983 60 21ft 0kts
13-Aug-20 11:00 37.636634 -122.387983 60 21ft 0kts
13-Aug-20 11:01 37.636634 -122.387983 60 21ft 0kts
13-Aug-20 11:02 37.636634 -122.387983 60 21ft 0kts
13-Aug-20 11:03 37.636634 -122.387983 60 21ft 0kts
13-Aug-20 11:04 37.636634 -122.387983 60 21ft 0kts
13-Aug-20 11:05 37.636634 -122.387983 60 21ft 0kts
13-Aug-20 11:06 37.636634 -122.387983 60 21ft 0kts
13-Aug-20 11:07 37.636634 -122.387983 60 21ft 0kts
13-Aug-20 11:07 37.636634 -122.387983 60 21ft 0kts
13-Aug-20 11:09 37.636634 -122.387983 60 21ft 0kts
13-Aug-20 11:10 37.636634 -122.387983 60 21ft 0kts
13-Aug-20 11:10 37.636634 -122.387983 60 21ft 0kts
13-Aug-20 11:11 37.636634 -122.387983 60 21ft 0kts
13-Aug-20 11:13 37.636634 -122.387983 60 21ft 0kts
13-Aug-20 11:13 37.636634 -122.387983 60 21ft 0kts
13-Aug-20 11:14 37.636634 -122.387983 60 21ft 0kts
13-Aug-20 11:15 37.636634 -122.387983 60 21ft 0kts
13-Aug-20 11:16 37.636634 -122.387983 60 21ft 0kts
13-Aug-20 11:17 37.636634 -122.387983 60 21ft 0kts
13-Aug-20 11:18 37.636634 -122.387983 60 21ft 0kts
13-Aug-20 11:19 37.636634 -122.387983 60 21ft 0kts
13-Aug-20 11:20 37.636634 -122.387983 60 21ft 0kts
13-Aug-20 11:21 37.636634 -122.387983 60 21ft 0kts
13-Aug-20 11:22 37.636634 -122.387984 60 21ft 0kts
13-Aug-20 11:23 37.636380 -122.388555 83 21ft 2kts
13-Aug-20 11:24 37.636506 -122.388895 149 21ft 0kts
13-Aug-20 11:25 37.636506 -122.388894 149 21ft 0kts
13-Aug-20 11:26 37.636506 -122.388894 149 21ft 0kts
13-Aug-20 11:27 37.636506 -122.388894 149 21ft 0kts
13-Aug-20 11:28 37.634997 -122.388238 212 20ft 13kts
13-Aug-20 11:29 37.632952 -122.391715 173 20ft 11kts
13-Aug-20 11:30 37.630236 -122.392193 156 19ft 13kts
13-Aug-20 11:31 37.627840 -122.387542 118 18ft 17kts
13-Aug-20 11:32 37.625191 -122.381225 117 19ft 21kts
13-Aug-20 11:33 37.622607 -122.375072 117 21ft 7kts
13-Aug-20 11:34 37.621819 -122.373195 117 21ft 14kts
13-Aug-20 11:35 37.619368 -122.367353 118 21ft 24kts
13-Aug-20 11:36 37.616289 -122.359998 119 22ft 22kts
13-Aug-20 11:37 37.614600 -122.356782 175 22ft 3kts
13-Aug-20 11:38 37.616181 -122.363460 298 21ft 91kts
13-Aug-20 11:39 37.640420 -122.421845 297 2414ft 215kts
13-Aug-20 11:40 37.606030 -122.474371 186 3022ft 260kts
13-Aug-20 11:41 37.532729 -122.475159 178 7062ft 259kts
13-Aug-20 11:42 37.465564 -122.440803 133 11311ft 303kts
13-Aug-20 11:43 37.405786 -122.346989 131 14242ft 382kts
13-Aug-20 11:44 37.342389 -122.247147 131 19022ft 365kts
13-Aug-20 11:45 37.271798 -122.137378 130 21152ft 423kts
13-Aug-20 11:46 37.196640 -122.020633 131 24402ft 437kts
13-Aug-20 11:47 37.118118 -121.898958 131 26578ft 454kts
13-Aug-20 11:48 37.037150 -121.774192 132 28804ft 462kts
13-Aug-20 11:49 36.956164 -121.650240 133 32957ft 457kts
13-Aug-20 11:50 36.876551 -121.529141 133 34999ft 446kts
13-Aug-20 11:51 36.797813 -121.409895 133 35014ft 441kts
13-Aug-20 11:52 36.719041 -121.291043 134 35012ft 444kts
13-Aug-20 11:53 36.639624 -121.171589 134 35010ft 446kts
13-Aug-20 11:54 36.559931 -121.052171 134 35022ft 446kts
13-Aug-20 11:55 36.479897 -120.932917 135 35019ft 445kts
13-Aug-20 11:56 36.399786 -120.814595 134 35018ft 445kts
13-Aug-20 11:57 36.319939 -120.695648 134 35018ft 445kts
13-Aug-20 11:58 36.240295 -120.577005 134 35017ft 445kts
13-Aug-20 11:59 36.160378 -120.458290 134 35017ft 444kts
13-Aug-20 12:00 36.080761 -120.340384 135 35015ft 444kts
13-Aug-20 12:01 36.001025 -120.222766 135 35012ft 443kts
13-Aug-20 12:02 35.921245 -120.105481 135 35015ft 443kts
13-Aug-20 12:03 35.845506 -119.986576 125 35015ft 451kts
13-Aug-20 12:04 35.787854 -119.847065 121 35012ft 454kts
13-Aug-20 12:05 35.731442 -119.706329 121 35013ft 457kts
13-Aug-20 12:06 35.675043 -119.565462 121 35013ft 456kts
13-Aug-20 12:07 35.618369 -119.424286 121 35013ft 457kts
13-Aug-20 12:08 35.561536 -119.283264 122 35007ft 457kts
13-Aug-20 12:09 35.502092 -119.144156 115 35015ft 461kts
13-Aug-20 12:10 35.420371 -119.033182 148 35007ft 439kts
13-Aug-20 12:11 35.322845 -118.941812 147 35088ft 446kts
13-Aug-20 12:12 35.224157 -118.848432 147 35150ft 445kts
13-Aug-20 12:13 35.125231 -118.754881 147 34489ft 453kts
13-Aug-20 12:14 35.038226 -118.650874 135 32022ft 439kts
13-Aug-20 12:15 34.958374 -118.535785 133 29338ft 441kts
13-Aug-20 12:16 34.880591 -118.422725 132 27243ft 423kts
13-Aug-20 12:17 34.806474 -118.315083 132 25158ft 414kts
13-Aug-20 12:18 34.732657 -118.208095 132 23066ft 406kts
13-Aug-20 12:19 34.660340 -118.103553 132 21019ft 398kts
13-Aug-20 12:20 34.600173 -117.991399 121 19026ft 391kts
13-Aug-20 12:21 34.547299 -117.877207 120 17033ft 381kts
13-Aug-20 12:22 34.496054 -117.765620 120 15117ft 369kts
13-Aug-20 12:23 34.447862 -117.660636 120 14216ft 329kts
13-Aug-20 12:24 34.405601 -117.568536 120 13562ft 305kts
13-Aug-20 12:25 34.364381 -117.478555 120 12148ft 301kts
13-Aug-20 12:26 34.323521 -117.390273 120 10732ft 297kts
13-Aug-20 12:27 34.269795 -117.319583 159 9367ft 287kts
13-Aug-20 12:28 34.195013 -117.287652 161 8148ft 279kts
13-Aug-20 12:29 34.122570 -117.297219 200 7083ft 256kts
13-Aug-20 12:30 34.064819 -117.339504 229 5334ft 227kts
13-Aug-20 12:31 34.054873 -117.406690 269 3909ft 207kts
13-Aug-20 12:32 34.054936 -117.472501 270 2774ft 171kts
13-Aug-20 12:33 34.054946 -117.522271 271 1941ft 138kts
13-Aug-20 12:34 34.054912 -117.569536 272 1183ft 139kts
13-Aug-20 12:35 34.054966 -117.603329 269 934ft 25kts
13-Aug-20 12:36 34.053865 -117.601875 89 931ft 14kts
13-Aug-20 12:37 34.053860 -117.595548 90 930ft 18kts
13-Aug-20 12:38 34.053865 -117.589670 89 933ft 19kts
13-Aug-20 12:39 34.053864 -117.583443 89 933ft 17kts
13-Aug-20 12:40 34.051697 -117.580523 178 926ft 12kts
13-Aug-20 12:41 34.050251 -117.579663 89 922ft 0kts

Navigation Log

Ident Type
Flight plan parsing failed, navigation log unavailable